Salzburg, Austria
Current Conditions -  °F | °C
As of 11:50 AM on Thursday 23 Oct 2014 (Local Time) from LOWS Reporting Station
Moderate Rain Moderate Rain  
Wind Chill: 35°   Ceiling: 1600
Heat Index: 41°   Visibility: 6mi
Dew Point: 37°   Wind: 10mph
Humidity: 87%   Direction: 250°WSW
Pressure: 30.09"   Gusts: NA
Location:  47.81°N, 13.04°E
Report Text: LOWS 230950Z 25009KT 220V290 9000 RA SCT014 BKN016 05/03 Q1019 NOSIG
Loading
Personal Weather Stations






























Interactive Weather Map
Tropical Storm Tracking
New forecast layout! Learn more

10-Day Weather Forecast

Advertisements
Track Severe Weather on mobile